シャージャラル国際空港(ダッカ)の過去48時間の天気

シャージャラル国際空港(ダッカ) (Kurmitola, Dia)

現在時刻: 8/18 09:16 +06 (8/18 03:16 UTC) 以下の時間は現地時間です。

過去48時間のMETAR気象情報
時間 風向 風速(m/s) 視程 気温(℃) 湿度(%) 気圧(hPa) 天気現象
18 09:00 静穏 0 4000m 31 79 1000 煙霧
18 08:30 東南東 2 3500m 30 84 1000 煙霧
18 08:00 南南西 2 3500m 29 89 1000 煙霧
18 07:30 静穏 0 3500m 28 94 1000 煙霧
18 07:00 静穏 0 3500m 28 94 1000 煙霧
18 06:30 静穏 0 3500m 28 94 999 煙霧
18 06:00 静穏 0 3500m 28 94 999 煙霧
18 05:30 静穏 0 3500m 28 94 999 煙霧
18 05:00 静穏 0 3500m 28 94 999 煙霧
18 04:30 南東 2 3500m 28 94 999 煙霧
18 04:00 南南東 2 3500m 28 94 999
18 03:30 静穏 0 3500m 29 94 999
18 03:00 静穏 0 3500m 29 94 999
18 02:30 2 3500m 29 89 999
18 02:00 2 3500m 29 89 999 雷雨
18 01:30 2 3500m 29 89 999 雷雨
18 01:00 南南西 2 3500m 29 89 999 雷雨
18 00:30 2 4000m 30 84 1000 霧雨
18 00:00 南南東 2 4000m 30 79 1000 煙霧
17 23:30 南南西 3 4000m 30 75 1000 煙霧
17 23:00 南南西 2 4000m 30 75 1000 煙霧
17 22:30 3 4000m 30 75 1000 煙霧
17 22:00 南南西 3 4000m 31 70 999 煙霧
17 21:30 2 4000m 31 70 999 煙霧
17 21:00 3 4000m 31 70 999 煙霧
17 20:30 南南西 3 4000m 31 70 998 煙霧
17 20:00 西南西 2 4000m 31 70 998 煙霧
17 19:30 南南西 2 4000m 31 66 998 煙霧
17 19:00 南南西 3 4000m 31 66 997 煙霧
17 18:30 2 4000m 31 62 997 煙霧
17 18:00 南南西 3 4000m 32 63 997 煙霧
17 17:30 南南西 3 4000m 32 63 997 煙霧
17 17:00 3 4000m 32 59 996 煙霧
17 16:30 南南西 2 4000m 33 56 997 煙霧
17 15:30 南東 2 4000m 34 50 997 煙霧
17 15:00 南南東 4 4000m 34 53 998 煙霧
17 14:30 南東 2 4000m 34 53 998 煙霧
17 14:00 南東 3 4000m 34 56 999 煙霧
17 13:30 南東 4 4000m 34 60 999 煙霧
17 13:00 東南東 4 4000m 34 60 999 煙霧
17 12:30 南東 4 4000m 33 63 1000 煙霧
17 12:00 南東 5 4000m 33 63 1001 煙霧
17 11:30 東南東 4 4000m 32 67 1001 煙霧
17 11:00 南東 5 4000m 32 71 1002 煙霧
17 10:30 東南東 5 4000m 32 75 1002 煙霧
17 10:00 南東 5 4000m 31 79 1002 煙霧
17 09:30 東南東 4 4000m 30 84 1002 煙霧
17 09:00 4 3500m 29 84 1002 煙霧
17 08:30 東南東 4 3500m 28 84 1002 煙霧
17 08:00 南東 5 3500m 28 84 1002 煙霧
17 07:30 東南東 4 3500m 28 89 1002 煙霧
17 07:00 東南東 4 3500m 28 89 1002 霧雨
17 06:30 3 3500m 28 89 1001 霧雨
17 06:00 東南東 4 3500m 28 89 1001 弱い雨
17 05:30 4 3500m - - 1001 弱い雨
17 05:00 4 3500m - - 1001 弱い雨
17 04:30 4 3500m 28 84 1001 霧雨
17 04:00 3 4000m 29 84 1001 霧雨
17 03:30 東南東 3 4000m 29 84 1001 霧雨
17 03:00 3 4000m 29 84 1001 霧雨
17 02:30 南南東 3 4000m 29 84 1002 煙霧
17 02:00 南東 3 4000m 29 84 1002 煙霧
VGHS 180300Z 00000KT 4000 HZ SCT012 BKN100 31/27 Q1000 NOSIG
VGHS 180230Z 11003KT 3500 HZ SCT010 BKN100 30/27 Q1000 NOSIG
VGHS 180200Z 20003KT 3500 HZ SCT010 BKN100 29/27 Q1000 TEMPO RA
VGHS 180130Z 00000KT 3500 HZ SCT010 BKN100 28/27 Q1000 TEMPO RA
VGHS 180100Z 00000KT 3500 HZ SCT010 BKN100 28/27 Q1000 TEMPO RA
VGHS 180030Z 00000KT 3500 HZ SCT010 BKN100 28/27 Q0999 NOSIG
VGHS 180000Z 00000KT 3500 HZ BKN010 BKN100 28/27 Q0999 TEMPO RA
VGHS 172330Z 00000KT 3500 HZ BKN010 FEW025CB BKN100 28/27 Q0999 TEMPO TSRA
VGHS 172300Z 00000KT 3500 HZ BKN010 FEW025CB BKN100 28/27 Q0999 TEMPO TSRA
VGHS 172230Z 13003KT 3500 HZ BKN010 FEW025CB BKN100 28/27 Q0999 TEMPO TSRA
VGHS 172200Z 15003KT 3500 TS BKN010 FEW025CB BKN100 28/27 Q0999 TEMPO TSRA
VGHS 172130Z 00000KT 3500 TS BKN010 FEW025CB OVC100 29/28 Q0999 TEMPO TSRA
VGHS 172100Z 00000KT 3500 TS BKN010 FEW025CB OVC100 29/28 Q0999 TEMPO TSRA
VGHS 172030Z 08003KT 3500 TS BKN010 FEW025CB OVC100 29/27 Q0999 TEMPO TSRA
VGHS 172000Z 09003KT 3500 TSRA BKN010 FEW025CB OVC100 29/27 Q0999 TEMPO TSRA
VGHS 171930Z 19003KT 3500 TSRA BKN010 FEW025CB OVC100 29/27 Q0999 TEMPO TSRA
VGHS 171900Z 20004KT 3500 TSRA BKN010 FEW025CB OVC100 29/27 Q0999 TEMPO TSRA
VGHS 171830Z 18004KT 4000 DZ SCT010 FEW025CB BKN100 30/27 Q1000 TEMPO TSRA
VGHS 171800Z 16004KT 4000 HZ SCT012 FEW025CB BKN100 30/26 Q1000 TEMPO TS
VGHS 171730Z 20005KT 4000 HZ SCT012 FEW025CB BKN100 30/25 Q1000 NOSIG
VGHS 171700Z 20003KT 4000 HZ SCT012 FEW025CB BKN100 30/25 Q1000 TEMPO TS
VGHS 171630Z 18005KT 4000 HZ SCT012 FEW025CB BKN100 30/25 Q1000 TEMPO TS
VGHS 171600Z 20005KT 4000 HZ FEW015 SCT100 31/25 Q0999 NOSIG
VGHS 171530Z 19004KT 4000 HZ FEW015 SCT100 31/25 Q0999 NOSIG
VGHS 171500Z 19005KT 4000 HZ FEW015 SCT100 31/25 Q0999 NOSIG
VGHS 171430Z 20006KT 4000 HZ FEW015 SCT100 31/25 Q0998 NOSIG
VGHS 171400Z 24004KT 4000 HZ FEW015 SCT100 31/25 Q0998 NOSIG
VGHS 171330Z 21004KT 4000 HZ FEW015 SCT100 31/24 Q0998 NOSIG
VGHS 171300Z 21005KT 4000 HZ FEW015 SCT100 31/24 Q0997 NOSIG
VGHS 171230Z 19004KT 4000 HZ SCT015 BKN100 31/23 Q0997 NOSIG
VGHS 171200Z 20006KT 4000 HZ SCT015 BKN100 32/24 Q0997 NOSIG
VGHS 171130Z 21005KT 4000 HZ SCT015 BKN100 32/24 Q0997 NOSIG
VGHS 171100Z 19005KT 4000 HZ SCT015 BKN100 32/23 Q0996 NOSIG
VGHS 171030Z 20003KT 4000 HZ SCT015 BKN100 33/23 Q0997 NOSIG
VGHS 170930Z 14003KT 4000 HZ SCT015 BKN100 34/22 Q0997 NOSIG
VGHS 170900Z 15007KT 4000 HZ SCT015 BKN100 34/23 Q0998 NOSIG
VGHS 170830Z 13003KT 4000 HZ SCT012 BKN100 34/23 Q0998 NOSIG
VGHS 170800Z 13006KT 4000 HZ SCT012 BKN100 34/24 Q0999 NOSIG
VGHS 170730Z 14007KT 4000 HZ SCT012 BKN100 34/25 Q0999 NOSIG
VGHS 170700Z 12008KT 4000 HZ SCT012 BKN100 34/25 Q0999 NOSIG
VGHS 170630Z 14008KT 4000 HZ SCT012 BKN100 33/25 Q1000 NOSIG
VGHS 170600Z 14010KT 4000 HZ SCT012 BKN100 33/25 Q1001 NOSIG
VGHS 170530Z 11008KT 4000 HZ SCT012 BKN100 32/25 Q1001 NOSIG
VGHS 170500Z 14010KT 4000 HZ SCT012 BKN100 32/26 Q1002 NOSIG
VGHS 170430Z 12010KT 4000 HZ SCT012 BKN100 32/27 Q1002 NOSIG
VGHS 170400Z 13010KT 4000 HZ SCT012 BKN100 31/27 Q1002 NOSIG
VGHS 170330Z 12008KT 4000 HZ SCT012 BKN100 30/27 Q1002 NOSIG
VGHS 170300Z 10007KT 3500 HZ BKN010 BKN100 29/26 Q1002 TEMPO RA
VGHS 170230Z 12008KT 3500 HZ BKN010 FEW025CB BKN100 28/25 Q1002 TEMPO TSRA
VGHS 170200Z 13009KT 3500 HZ BKN010 FEW025CB BKN100 28/25 Q1002 TEMPO TSRA
VGHS 170130Z 11007KT 3500 HZ BKN010 FEW025CB BKN100 28/26 Q1002 TEMPO TSRA
VGHS 170100Z 11008KT 3500 DZ BKN010 FEW025CB BKN100 28/26 Q1002 TEMPO TSRA
VGHS 170030Z 09006KT 3500 DZ BKN010 FEW025CB BKN100 28/26 Q1001 TEMPO TSRA
VGHS 170000Z 11007KT 3500 -RA BKN010 FEW025CB BKN100 28/26 Q1001 TEMPO TSRA
VGHS 162330Z 09008KT 3500 -RA BKN010 FEW025CB BKN100 28/260 Q1001 TEMPO TSRA
VGHS 162300Z 09007KT 3500 -RA BKN010 FEW025CB BKN100 28/260 Q1001 TEMPO TSRA
VGHS 162230Z 09007KT 3500 DZ BKN010 BKN100 28/25 Q1001 TEMPO RA
VGHS 162200Z 10006KT 4000 DZ BKN010 BKN100 29/26 Q1001 TEMPO RA
VGHS 162130Z 12005KT 4000 DZ SCT010 BKN100 29/26 Q1001 TEMPO RA
VGHS 162100Z 09005KT 4000 DZ SCT010 BKN100 29/26 Q1001 TEMPO RA
VGHS 162030Z 15005KT 4000 HZ SCT010 BKN100 29/26 Q1002 TEMPO RA
VGHS 162000Z 14005KT 4000 HZ SCT010 BKN100 29/26 Q1002 TEMPO RA